sensor_id;sensor_type;location;lat;lon;timestamp;pressure;altitude;pressure_sealevel;temperature;humidity
70072;BME280;57434;42.794;23.302;2022-09-24T00:07:56;96046.75;;;3.77;71.01
70072;BME280;57434;42.794;23.302;2022-09-24T00:10:24;95940.94;;;2.88;70.76
70072;BME280;57434;42.794;23.302;2022-09-24T00:12:50;95881.34;;;2.35;71.32
70072;BME280;57434;42.794;23.302;2022-09-24T00:15:17;95814.84;;;2.22;70.84
70072;BME280;57434;42.794;23.302;2022-09-24T00:17:44;95936.69;;;3.00;70.89
70072;BME280;57434;42.794;23.302;2022-09-24T00:20:12;96036.66;;;3.83;70.56
70072;BME280;57434;42.794;23.302;2022-09-24T00:22:39;95992.75;;;3.36;70.57
70072;BME280;57434;42.794;23.302;2022-09-24T00:25:06;95718.63;;;1.65;69.99
70072;BME280;57434;42.794;23.302;2022-09-24T00:33:52;95800.13;;;2.09;70.30
70072;BME280;57434;42.794;23.302;2022-09-24T00:36:22;95713.88;;;0.97;70.76
70072;BME280;57434;42.794;23.302;2022-09-24T00:38:51;95788.03;;;2.19;69.45
70072;BME280;57434;42.794;23.302;2022-09-24T00:41:19;96063.88;;;3.43;70.15
70072;BME280;57434;42.794;23.302;2022-09-24T00:43:48;95780.91;;;1.53;70.68
70072;BME280;57434;42.794;23.302;2022-09-24T00:49:48;95866.97;;;1.91;71.18
70072;BME280;57434;42.794;23.302;2022-09-24T00:52:17;95924.50;;;2.81;70.72
70072;BME280;57434;42.794;23.302;2022-09-24T00:54:45;95698.47;;;1.16;69.76
70072;BME280;57434;42.794;23.302;2022-09-24T00:57:13;95720.97;;;0.98;69.97
70072;BME280;57434;42.794;23.302;2022-09-24T00:59:41;95439.88;;;-0.28;69.89
70072;BME280;57434;42.794;23.302;2022-09-24T01:02:09;95514.97;;;-0.04;69.65
70072;BME280;57434;42.794;23.302;2022-09-24T01:04:37;95711.00;;;1.53;69.86
70072;BME280;57434;42.794;23.302;2022-09-24T01:09:59;95706.16;;;1.24;69.64
70072;BME280;57434;42.794;23.302;2022-09-24T01:12:31;96018.28;;;3.44;70.56
70072;BME280;57434;42.794;23.302;2022-09-24T01:15:04;96013.59;;;3.57;70.21
70072;BME280;57434;42.794;23.302;2022-09-24T02:47:53;95507.31;;;-2.19;72.12
70072;BME280;57434;42.794;23.302;2022-09-24T02:51:03;95634.97;;;-0.82;72.01
70072;BME280;57434;42.794;23.302;2022-09-24T02:54:23;95781.41;;;0.56;71.44
70072;BME280;57434;42.794;23.302;2022-09-24T02:57:23;95881.13;;;1.21;71.24
70072;BME280;57434;42.794;23.302;2022-09-24T03:03:12;95586.44;;;-1.23;70.87
70072;BME280;57434;42.794;23.302;2022-09-24T03:05:55;96085.88;;;2.53;71.46
70072;BME280;57434;42.794;23.302;2022-09-24T03:08:37;95543.13;;;-1.69;71.07
70072;BME280;57434;42.794;23.302;2022-09-24T03:11:29;95732.25;;;-0.15;72.08
70072;BME280;57434;42.794;23.302;2022-09-24T03:14:29;96096.94;;;1.73;73.37
70072;BME280;57434;42.794;23.302;2022-09-24T03:17:21;95838.31;;;-0.20;72.41
70072;BME280;57434;42.794;23.302;2022-09-24T03:20:07;95950.84;;;1.09;71.59
70072;BME280;57434;42.794;23.302;2022-09-24T03:22:54;96099.44;;;1.68;72.03
70072;BME280;57434;42.794;23.302;2022-09-24T03:25:50;95518.56;;;-2.75;72.03
70072;BME280;57434;42.794;23.302;2022-09-24T03:28:29;95834.47;;;-0.03;71.67
70072;BME280;57434;42.794;23.302;2022-09-24T03:31:21;95821.47;;;-0.52;71.48
70072;BME280;57434;42.794;23.302;2022-09-24T03:34:32;95510.25;;;-1.53;70.27
70072;BME280;57434;42.794;23.302;2022-09-24T03:37:19;95600.16;;;-1.46;70.81
70072;BME280;57434;42.794;23.302;2022-09-24T03:40:03;96174.75;;;2.19;71.44
70072;BME280;57434;42.794;23.302;2022-09-24T03:42:50;95561.72;;;-1.26;71.06
70072;BME280;57434;42.794;23.302;2022-09-24T03:45:35;95476.25;;;-1.89;71.44
70072;BME280;57434;42.794;23.302;2022-09-24T03:48:15;95814.66;;;0.49;71.70
70072;BME280;57434;42.794;23.302;2022-09-24T03:51:01;95980.34;;;1.35;72.44
70072;BME280;57434;42.794;23.302;2022-09-24T03:53:39;95773.19;;;-0.37;71.92
70072;BME280;57434;42.794;23.302;2022-09-24T03:56:50;95529.53;;;-2.37;72.07
70072;BME280;57434;42.794;23.302;2022-09-24T03:59:44;95518.47;;;-3.01;72.97
70072;BME280;57434;42.794;23.302;2022-09-24T04:02:21;95949.22;;;-0.09;73.57
70072;BME280;57434;42.794;23.302;2022-09-24T04:05:00;95873.78;;;-0.79;74.04
70072;BME280;57434;42.794;23.302;2022-09-24T04:08:11;96076.59;;;0.13;73.43
70072;BME280;57434;42.794;23.302;2022-09-24T04:15:11;95741.19;;;-1.08;72.06
70072;BME280;57434;42.794;23.302;2022-09-24T04:18:27;95821.94;;;-0.88;72.12
70072;BME280;57434;42.794;23.302;2022-09-24T04:30:19;95764.91;;;-1.18;72.57
70072;BME280;57434;42.794;23.302;2022-09-24T04:33:49;96138.44;;;1.27;73.14
70072;BME280;57434;42.794;23.302;2022-09-24T04:36:55;95647.84;;;-2.58;73.28
70072;BME280;57434;42.794;23.302;2022-09-24T04:40:23;96136.66;;;1.40;74.00
70072;BME280;57434;42.794;23.302;2022-09-24T04:57:32;96139.63;;;2.35;72.10
70072;BME280;57434;42.794;23.302;2022-09-24T05:00:37;95848.75;;;0.16;71.65
70072;BME280;57434;42.794;23.302;2022-09-24T05:03:28;95489.44;;;-1.54;71.68
70072;BME280;57434;42.794;23.302;2022-09-24T06:13:52;95930.63;;;4.77;68.96
70072;BME280;57434;42.794;23.302;2022-09-24T06:22:27;95823.91;;;5.09;68.29
70072;BME280;57434;42.794;23.302;2022-09-24T06:24:54;95855.63;;;5.55;67.44
70072;BME280;57434;42.794;23.302;2022-09-24T06:27:21;96119.31;;;7.47;66.17
70072;BME280;57434;42.794;23.302;2022-09-24T06:29:48;95932.41;;;6.67;65.07
70072;BME280;57434;42.794;23.302;2022-09-24T06:32:16;96189.91;;;8.06;64.87
70072;BME280;57434;42.794;23.302;2022-09-24T06:48:30;96031.88;;;7.96;63.58
70072;BME280;57434;42.794;23.302;2022-09-24T06:50:57;96002.81;;;7.48;63.81
70072;BME280;57434;42.794;23.302;2022-09-24T06:53:25;96019.59;;;8.12;62.12
70072;BME280;57434;42.794;23.302;2022-09-24T06:55:55;96097.09;;;8.99;61.03
70072;BME280;57434;42.794;23.302;2022-09-24T06:58:23;96009.16;;;8.31;60.63
70072;BME280;57434;42.794;23.302;2022-09-24T07:00:54;95796.91;;;7.06;60.25
70072;BME280;57434;42.794;23.302;2022-09-24T07:03:21;96201.81;;;9.44;61.83
70072;BME280;57434;42.794;23.302;2022-09-24T07:05:48;96061.63;;;9.05;60.26
70072;BME280;57434;42.794;23.302;2022-09-24T07:08:16;96182.75;;;9.24;61.28
70072;BME280;57434;42.794;23.302;2022-09-24T07:10:44;96176.78;;;9.73;60.39
70072;BME280;57434;42.794;23.302;2022-09-24T07:13:12;96015.91;;;9.41;59.55
70072;BME280;57434;42.794;23.302;2022-09-24T07:15:41;95964.38;;;9.24;57.59
70072;BME280;57434;42.794;23.302;2022-09-24T07:18:08;96091.13;;;10.44;56.66
70072;BME280;57434;42.794;23.302;2022-09-24T07:20:35;96161.88;;;10.48;57.21
70072;BME280;57434;42.794;23.302;2022-09-24T07:23:04;96182.09;;;10.91;56.60
70072;BME280;57434;42.794;23.302;2022-09-24T07:25:31;96185.56;;;11.59;54.41
70072;BME280;57434;42.794;23.302;2022-09-24T07:28:09;96176.88;;;11.42;55.40
70072;BME280;57434;42.794;23.302;2022-09-24T07:30:37;96100.72;;;11.40;54.10
70072;BME280;57434;42.794;23.302;2022-09-24T07:33:05;96104.06;;;11.59;53.25
70072;BME280;57434;42.794;23.302;2022-09-24T07:35:33;96166.81;;;10.92;56.03
70072;BME280;57434;42.794;23.302;2022-09-24T07:38:05;96091.41;;;10.99;54.17
70072;BME280;57434;42.794;23.302;2022-09-24T07:40:33;96139.00;;;11.87;53.02
70072;BME280;57434;42.794;23.302;2022-09-24T07:43:00;95666.41;;;8.72;53.34
70072;BME280;57434;42.794;23.302;2022-09-24T07:45:28;96024.72;;;11.29;51.57
70072;BME280;57434;42.794;23.302;2022-09-24T07:48:03;96189.31;;;13.02;51.86
70072;BME280;57434;42.794;23.302;2022-09-24T07:50:32;96170.84;;;13.21;48.34
70072;BME280;57434;42.794;23.302;2022-09-24T07:53:00;96052.34;;;12.06;49.60
70072;BME280;57434;42.794;23.302;2022-09-24T07:55:27;96188.38;;;13.36;49.73
70072;BME280;57434;42.794;23.302;2022-09-24T07:57:54;96158.75;;;13.78;48.46
70072;BME280;57434;42.794;23.302;2022-09-24T08:00:22;95929.41;;;12.64;47.17
70072;BME280;57434;42.794;23.302;2022-09-24T08:02:49;96140.81;;;14.18;47.60
70072;BME280;57434;42.794;23.302;2022-09-24T08:05:16;96148.44;;;14.49;45.57
70072;BME280;57434;42.794;23.302;2022-09-24T08:07:51;96150.00;;;14.55;46.19
70072;BME280;57434;42.794;23.302;2022-09-24T08:10:18;96096.97;;;14.22;45.87
70072;BME280;57434;42.794;23.302;2022-09-24T08:12:45;96073.66;;;14.28;46.42
70072;BME280;57434;42.794;23.302;2022-09-24T08:15:12;96053.97;;;13.85;45.78
70072;BME280;57434;42.794;23.302;2022-09-24T08:17:40;96009.91;;;13.45;46.65
70072;BME280;57434;42.794;23.302;2022-09-24T08:20:07;95990.34;;;13.36;45.28
70072;BME280;57434;42.794;23.302;2022-09-24T08:22:34;96000.84;;;12.67;47.24
70072;BME280;57434;42.794;23.302;2022-09-24T08:25:01;96151.38;;;14.23;47.99
70072;BME280;57434;42.794;23.302;2022-09-24T08:27:29;96132.50;;;14.46;45.75
70072;BME280;57434;42.794;23.302;2022-09-24T08:29:56;96004.13;;;12.91;46.45
70072;BME280;57434;42.794;23.302;2022-09-24T08:32:23;96143.59;;;14.12;46.58
70072;BME280;57434;42.794;23.302;2022-09-24T08:34:49;96013.44;;;13.82;46.39
70072;BME280;57434;42.794;23.302;2022-09-24T08:37:18;96124.78;;;15.45;44.79
70072;BME280;57434;42.794;23.302;2022-09-24T08:39:45;96021.19;;;15.47;42.16
70072;BME280;57434;42.794;23.302;2022-09-24T08:44:50;95962.66;;;15.09;42.68
70072;BME280;57434;42.794;23.302;2022-09-24T08:47:59;96126.50;;;16.95;40.71
70072;BME280;57434;42.794;23.302;2022-09-24T08:50:29;96118.06;;;17.25;40.56
70072;BME280;57434;42.794;23.302;2022-09-24T08:55:33;96102.53;;;17.67;39.97
70072;BME280;57434;42.794;23.302;2022-09-24T09:00:48;96065.78;;;16.79;40.25
70072;BME280;57434;42.794;23.302;2022-09-24T09:08:57;96092.34;;;18.56;38.63
70072;BME280;57434;42.794;23.302;2022-09-24T09:11:33;96078.25;;;18.69;37.68
70072;BME280;57434;42.794;23.302;2022-09-24T09:14:11;96096.75;;;18.94;37.27
70072;BME280;57434;42.794;23.302;2022-09-24T09:16:56;96091.38;;;18.91;35.80
70072;BME280;57434;42.794;23.302;2022-09-24T09:19:28;96092.44;;;18.88;35.82
70072;BME280;57434;42.794;23.302;2022-09-24T09:22:05;96106.66;;;18.69;36.98
70072;BME280;57434;42.794;23.302;2022-09-24T09:24:43;96082.69;;;18.65;34.91
70072;BME280;57434;42.794;23.302;2022-09-24T09:27:13;96071.38;;;18.78;34.99
70072;BME280;57434;42.794;23.302;2022-09-24T09:29:42;96024.97;;;18.70;33.89
70072;BME280;57434;42.794;23.302;2022-09-24T09:32:34;96068.38;;;18.27;33.64
70072;BME280;57434;42.794;23.302;2022-09-24T09:38:41;96068.59;;;19.60;32.00
70072;BME280;57434;42.794;23.302;2022-09-24T09:41:28;96041.94;;;19.77;32.55
70072;BME280;57434;42.794;23.302;2022-09-24T09:44:11;96065.63;;;20.11;32.86
70072;BME280;57434;42.794;23.302;2022-09-24T09:46:48;96042.97;;;20.58;31.70
70072;BME280;57434;42.794;23.302;2022-09-24T09:49:17;95937.19;;;20.36;31.20
70072;BME280;57434;42.794;23.302;2022-09-24T09:51:45;96037.28;;;19.60;32.94
70072;BME280;57434;42.794;23.302;2022-09-24T09:54:13;96041.84;;;19.37;32.93
70072;BME280;57434;42.794;23.302;2022-09-24T09:56:47;96031.00;;;20.07;31.68
70072;BME280;57434;42.794;23.302;2022-09-24T09:59:18;96027.47;;;19.75;31.98
70072;BME280;57434;42.794;23.302;2022-09-24T10:01:52;95840.59;;;17.78;32.16
70072;BME280;57434;42.794;23.302;2022-09-24T10:07:06;96017.28;;;18.46;33.85
70072;BME280;57434;42.794;23.302;2022-09-24T10:09:34;96005.44;;;19.49;32.06
70072;BME280;57434;42.794;23.302;2022-09-24T10:12:21;96002.63;;;19.75;30.50
70072;BME280;57434;42.794;23.302;2022-09-24T10:15:01;96007.47;;;20.33;30.18
70072;BME280;57434;42.794;23.302;2022-09-24T10:17:34;96002.50;;;20.60;28.49
70072;BME280;57434;42.794;23.302;2022-09-24T10:20:08;95885.75;;;19.94;28.83
70072;BME280;57434;42.794;23.302;2022-09-24T10:22:46;96011.47;;;21.11;27.88
70072;BME280;57434;42.794;23.302;2022-09-24T10:25:26;95960.03;;;20.22;28.29
70072;BME280;57434;42.794;23.302;2022-09-24T10:27:56;95883.16;;;19.43;28.78
70072;BME280;57434;42.794;23.302;2022-09-24T10:30:24;95927.94;;;19.82;28.99
70072;BME280;57434;42.794;23.302;2022-09-24T10:32:59;95984.13;;;20.21;28.88
70072;BME280;57434;42.794;23.302;2022-09-24T10:35:29;95917.81;;;20.08;28.80
70072;BME280;57434;42.794;23.302;2022-09-24T10:37:58;95992.53;;;21.21;27.95
70072;BME280;57434;42.794;23.302;2022-09-24T10:40:28;95991.63;;;21.68;26.58
70072;BME280;57434;42.794;23.302;2022-09-24T10:43:02;95871.28;;;21.36;27.49
70072;BME280;57434;42.794;23.302;2022-09-24T10:51:09;95904.31;;;21.80;25.74
70072;BME280;57434;42.794;23.302;2022-09-24T10:56:48;95999.75;;;21.43;26.76
70072;BME280;57434;42.794;23.302;2022-09-24T11:04:50;95984.56;;;22.26;26.19
70072;BME280;57434;42.794;23.302;2022-09-24T11:07:36;95882.72;;;22.00;25.72
70072;BME280;57434;42.794;23.302;2022-09-24T11:10:33;95985.13;;;22.17;26.09
70072;BME280;57434;42.794;23.302;2022-09-24T11:18:45;95972.28;;;21.33;27.11
70072;BME280;57434;42.794;23.302;2022-09-24T11:24:30;95957.75;;;20.89;27.42
70072;BME280;57434;42.794;23.302;2022-09-24T11:30:13;95951.84;;;22.71;27.22
70072;BME280;57434;42.794;23.302;2022-09-24T11:39:29;95929.78;;;22.43;26.06
70072;BME280;57434;42.794;23.302;2022-09-24T11:45:38;95941.16;;;21.01;27.47
70072;BME280;57434;42.794;23.302;2022-09-24T11:48:19;95959.66;;;21.49;27.07
70072;BME280;57434;42.794;23.302;2022-09-24T11:50:57;95942.75;;;22.44;26.70
70072;BME280;57434;42.794;23.302;2022-09-24T11:55:58;95935.44;;;22.71;25.90
70072;BME280;57434;42.794;23.302;2022-09-24T12:06:14;95919.94;;;21.79;26.64
70072;BME280;57434;42.794;23.302;2022-09-24T12:08:54;95923.31;;;22.06;27.53
70072;BME280;57434;42.794;23.302;2022-09-24T12:11:34;95900.53;;;22.73;26.54
70072;BME280;57434;42.794;23.302;2022-09-24T12:14:18;95913.19;;;23.76;25.28
70072;BME280;57434;42.794;23.302;2022-09-24T12:16:50;95838.00;;;22.69;24.83
70072;BME280;57434;42.794;23.302;2022-09-24T12:19:30;95759.47;;;21.88;25.21
70072;BME280;57434;42.794;23.302;2022-09-24T12:22:00;95802.81;;;22.23;26.32
70072;BME280;57434;42.794;23.302;2022-09-24T12:26:58;95820.59;;;22.52;25.08
70072;BME280;57434;42.794;23.302;2022-09-24T12:29:32;95918.13;;;22.92;26.20
70072;BME280;57434;42.794;23.302;2022-09-24T12:35:01;95906.59;;;22.61;24.87
70072;BME280;57434;42.794;23.302;2022-09-24T12:37:37;95816.16;;;22.36;25.72
70072;BME280;57434;42.794;23.302;2022-09-24T12:43:21;95909.16;;;23.87;24.41
70072;BME280;57434;42.794;23.302;2022-09-24T12:45:58;95850.19;;;23.69;23.99
70072;BME280;57434;42.794;23.302;2022-09-24T12:48:27;95830.56;;;23.57;24.98
70072;BME280;57434;42.794;23.302;2022-09-24T12:50:59;95839.44;;;23.84;24.64
70072;BME280;57434;42.794;23.302;2022-09-24T12:53:33;95895.78;;;23.89;24.02
70072;BME280;57434;42.794;23.302;2022-09-24T12:56:03;95899.56;;;24.15;24.81
70072;BME280;57434;42.794;23.302;2022-09-24T12:58:40;95887.53;;;24.09;23.77
70072;BME280;57434;42.794;23.302;2022-09-24T13:01:26;95726.19;;;23.20;23.34
70072;BME280;57434;42.794;23.302;2022-09-24T13:06:40;95874.44;;;23.68;25.03
70072;BME280;57434;42.794;23.302;2022-09-24T13:09:35;95884.00;;;23.47;25.05
70072;BME280;57434;42.794;23.302;2022-09-24T13:12:19;95879.53;;;24.07;25.08
70072;BME280;57434;42.794;23.302;2022-09-24T13:15:02;95872.84;;;24.85;24.04
70072;BME280;57434;42.794;23.302;2022-09-24T13:17:34;95708.31;;;22.82;23.15
70072;BME280;57434;42.794;23.302;2022-09-24T13:20:07;95851.34;;;22.67;24.70
70072;BME280;57434;42.794;23.302;2022-09-24T13:22:55;95771.31;;;22.08;25.40
70072;BME280;57434;42.794;23.302;2022-09-24T13:25:23;95740.81;;;20.87;25.27
70072;BME280;57434;42.794;23.302;2022-09-24T13:33:00;95871.03;;;23.46;26.01
70072;BME280;57434;42.794;23.302;2022-09-24T13:35:34;95791.09;;;23.33;25.18
70072;BME280;57434;42.794;23.302;2022-09-24T13:38:27;95864.94;;;24.20;24.60
70072;BME280;57434;42.794;23.302;2022-09-24T13:41:28;95850.50;;;24.03;24.01
70072;BME280;57434;42.794;23.302;2022-09-24T13:44:03;95848.50;;;24.21;23.97
70072;BME280;57434;42.794;23.302;2022-09-24T13:46:31;95748.69;;;23.24;23.77
70072;BME280;57434;42.794;23.302;2022-09-24T13:49:08;95745.84;;;23.09;25.44
70072;BME280;57434;42.794;23.302;2022-09-24T13:51:38;95856.72;;;23.46;25.22
70072;BME280;57434;42.794;23.302;2022-09-24T13:54:27;95841.06;;;23.55;25.38
70072;BME280;57434;42.794;23.302;2022-09-24T13:56:59;95836.66;;;23.39;26.01
70072;BME280;57434;42.794;23.302;2022-09-24T13:59:28;95721.28;;;22.37;26.35
70072;BME280;57434;42.794;23.302;2022-09-24T14:01:55;95732.34;;;22.48;26.00
70072;BME280;57434;42.794;23.302;2022-09-24T14:04:22;95857.81;;;22.82;26.66
70072;BME280;57434;42.794;23.302;2022-09-24T14:06:52;95831.06;;;22.49;26.88
70072;BME280;57434;42.794;23.302;2022-09-24T14:09:28;95827.81;;;21.86;26.49
70072;BME280;57434;42.794;23.302;2022-09-24T14:11:58;95845.66;;;22.15;26.77
70072;BME280;57434;42.794;23.302;2022-09-24T14:14:27;95835.47;;;21.99;27.41
70072;BME280;57434;42.794;23.302;2022-09-24T14:17:07;95832.16;;;21.80;29.05
70072;BME280;57434;42.794;23.302;2022-09-24T14:19:35;95695.44;;;20.68;28.56
70072;BME280;57434;42.794;23.302;2022-09-24T14:22:03;95728.72;;;20.73;29.45
70072;BME280;57434;42.794;23.302;2022-09-24T14:24:44;95831.53;;;21.09;30.33
70072;BME280;57434;42.794;23.302;2022-09-24T14:27:18;95735.91;;;20.04;30.67
70072;BME280;57434;42.794;23.302;2022-09-24T14:29:51;95835.22;;;20.55;31.11
70072;BME280;57434;42.794;23.302;2022-09-24T14:32:28;95831.16;;;20.16;31.96
70072;BME280;57434;42.794;23.302;2022-09-24T14:34:58;95659.78;;;18.89;32.13
70072;BME280;57434;42.794;23.302;2022-09-24T14:37:48;95842.53;;;20.30;32.71
70072;BME280;57434;42.794;23.302;2022-09-24T14:40:18;95694.75;;;18.98;32.83
70072;BME280;57434;42.794;23.302;2022-09-24T14:43:00;95751.84;;;19.13;33.29
70072;BME280;57434;42.794;23.302;2022-09-24T14:45:35;95774.72;;;19.47;32.79
70072;BME280;57434;42.794;23.302;2022-09-24T14:48:05;95832.53;;;20.02;33.70
70072;BME280;57434;42.794;23.302;2022-09-24T14:50:43;95823.72;;;20.13;32.80
70072;BME280;57434;42.794;23.302;2022-09-24T14:53:24;95813.22;;;20.08;33.05
70072;BME280;57434;42.794;23.302;2022-09-24T14:55:52;95745.25;;;19.91;32.66
70072;BME280;57434;42.794;23.302;2022-09-24T15:01:00;95696.91;;;19.78;32.39
70072;BME280;57434;42.794;23.302;2022-09-24T15:03:39;95846.47;;;20.60;32.43
70072;BME280;57434;42.794;23.302;2022-09-24T15:06:19;95837.00;;;20.86;32.66
70072;BME280;57434;42.794;23.302;2022-09-24T15:11:23;95855.97;;;20.63;33.42
70072;BME280;57434;42.794;23.302;2022-09-24T15:13:57;95845.00;;;20.67;32.78
70072;BME280;57434;42.794;23.302;2022-09-24T15:16:34;95835.50;;;19.97;33.82
70072;BME280;57434;42.794;23.302;2022-09-24T15:21:45;95710.50;;;19.38;33.42
70072;BME280;57434;42.794;23.302;2022-09-24T15:24:13;95728.63;;;19.35;33.27
70072;BME280;57434;42.794;23.302;2022-09-24T15:26:43;95846.56;;;19.87;33.58
70072;BME280;57434;42.794;23.302;2022-09-24T15:29:18;95872.84;;;19.93;34.22
70072;BME280;57434;42.794;23.302;2022-09-24T15:31:46;95845.41;;;19.69;34.15
70072;BME280;57434;42.794;23.302;2022-09-24T15:34:13;95742.31;;;18.57;34.39
70072;BME280;57434;42.794;23.302;2022-09-24T15:36:52;95736.41;;;18.55;34.59
70072;BME280;57434;42.794;23.302;2022-09-24T15:39:20;95684.06;;;18.19;34.99
70072;BME280;57434;42.794;23.302;2022-09-24T15:41:47;95734.78;;;18.60;34.93
70072;BME280;57434;42.794;23.302;2022-09-24T15:44:25;95849.97;;;19.19;35.57
70072;BME280;57434;42.794;23.302;2022-09-24T15:46:59;95768.41;;;18.56;35.25
70072;BME280;57434;42.794;23.302;2022-09-24T15:49:26;95847.56;;;19.10;36.06
70072;BME280;57434;42.794;23.302;2022-09-24T15:51:58;95843.72;;;19.08;35.93
70072;BME280;57434;42.794;23.302;2022-09-24T15:54:25;95854.63;;;18.90;36.49
70072;BME280;57434;42.794;23.302;2022-09-24T15:56:53;95741.22;;;17.97;36.73
70072;BME280;57434;42.794;23.302;2022-09-24T15:59:20;95861.34;;;18.74;37.39
70072;BME280;57434;42.794;23.302;2022-09-24T16:01:50;95718.09;;;17.55;37.21
70072;BME280;57434;42.794;23.302;2022-09-24T16:04:17;95726.78;;;17.63;37.35
70072;BME280;57434;42.794;23.302;2022-09-24T16:06:45;95745.09;;;17.43;37.79
70072;BME280;57434;42.794;23.302;2022-09-24T16:09:11;95761.41;;;17.37;38.18
70072;BME280;57434;42.794;23.302;2022-09-24T16:11:39;95868.88;;;17.65;39.28
70072;BME280;57434;42.794;23.302;2022-09-24T16:14:05;95845.28;;;17.32;40.05
70072;BME280;57434;42.794;23.302;2022-09-24T16:16:32;95836.75;;;17.08;40.28
70072;BME280;57434;42.794;23.302;2022-09-24T16:18:59;95877.28;;;17.03;41.35
70072;BME280;57434;42.794;23.302;2022-09-24T16:21:27;95803.44;;;16.35;41.95
70072;BME280;57434;42.794;23.302;2022-09-24T16:23:54;95889.16;;;16.71;42.24
70072;BME280;57434;42.794;23.302;2022-09-24T16:26:22;95775.03;;;15.81;42.36
70072;BME280;57434;42.794;23.302;2022-09-24T16:28:49;95860.53;;;16.39;42.71
70072;BME280;57434;42.794;23.302;2022-09-24T16:31:17;95806.44;;;15.72;43.52
70072;BME280;57434;42.794;23.302;2022-09-24T16:33:45;95882.94;;;15.96;44.42
70072;BME280;57434;42.794;23.302;2022-09-24T16:36:12;95889.09;;;16.00;44.51
70072;BME280;57434;42.794;23.302;2022-09-24T16:38:39;95908.91;;;16.00;44.33
70072;BME280;57434;42.794;23.302;2022-09-24T16:41:06;95812.28;;;15.33;44.73
70072;BME280;57434;42.794;23.302;2022-09-24T16:43:33;95889.69;;;15.87;44.79
70072;BME280;57434;42.794;23.302;2022-09-24T16:46:05;95892.00;;;15.89;45.04
70072;BME280;57434;42.794;23.302;2022-09-24T16:48:33;95787.72;;;15.11;44.86
70072;BME280;57434;42.794;23.302;2022-09-24T16:51:07;95763.94;;;14.73;45.61
70072;BME280;57434;42.794;23.302;2022-09-24T16:53:34;95794.69;;;14.87;45.97
70072;BME280;57434;42.794;23.302;2022-09-24T16:56:04;95905.00;;;15.45;46.79
70072;BME280;57434;42.794;23.302;2022-09-24T16:58:31;95808.34;;;14.67;46.49
70072;BME280;57434;42.794;23.302;2022-09-24T17:00:58;95786.78;;;14.69;46.26
70072;BME280;57434;42.794;23.302;2022-09-24T17:03:25;95818.88;;;14.55;47.22
70072;BME280;57434;42.794;23.302;2022-09-24T17:05:52;95793.25;;;14.19;48.04
70072;BME280;57434;42.794;23.302;2022-09-24T17:08:19;95808.63;;;14.24;48.53
70072;BME280;57434;42.794;23.302;2022-09-24T17:10:50;95766.31;;;13.90;48.61
70072;BME280;57434;42.794;23.302;2022-09-24T17:13:22;95910.00;;;14.95;48.74
70072;BME280;57434;42.794;23.302;2022-09-24T17:15:49;95830.16;;;14.33;48.52
70072;BME280;57434;42.794;23.302;2022-09-24T17:18:16;95853.00;;;14.12;48.90
70072;BME280;57434;42.794;23.302;2022-09-24T17:20:43;95824.22;;;13.80;49.51
70072;BME280;57434;42.794;23.302;2022-09-24T17:23:10;95846.81;;;13.92;49.71
70072;BME280;57434;42.794;23.302;2022-09-24T17:25:37;95858.56;;;13.68;50.00
70072;BME280;57434;42.794;23.302;2022-09-24T17:28:04;95856.72;;;13.48;50.43
70072;BME280;57434;42.794;23.302;2022-09-24T17:30:31;95799.41;;;13.14;49.74
70072;BME280;57434;42.794;23.302;2022-09-24T17:32:58;95853.50;;;13.29;49.28
70072;BME280;57434;42.794;23.302;2022-09-24T17:35:25;95971.13;;;13.77;49.39
70072;BME280;57434;42.794;23.302;2022-09-24T17:37:52;95884.22;;;13.27;49.53
70072;BME280;57434;42.794;23.302;2022-09-24T17:40:19;95858.13;;;13.32;48.87
70072;BME280;57434;42.794;23.302;2022-09-24T17:42:50;95929.53;;;13.23;50.14
70072;BME280;57434;42.794;23.302;2022-09-24T17:45:17;95821.06;;;11.91;50.35
70072;BME280;57434;42.794;23.302;2022-09-24T17:47:43;95894.94;;;11.92;49.94
70072;BME280;57434;42.794;23.302;2022-09-24T17:50:11;95985.72;;;12.64;49.91
70072;BME280;57434;42.794;23.302;2022-09-24T17:52:37;95875.94;;;11.81;50.30
70072;BME280;57434;42.794;23.302;2022-09-24T17:55:05;95860.16;;;11.89;49.74
70072;BME280;57434;42.794;23.302;2022-09-24T17:57:32;95862.81;;;11.98;49.74
70072;BME280;57434;42.794;23.302;2022-09-24T17:59:59;95830.22;;;11.60;50.34
70072;BME280;57434;42.794;23.302;2022-09-24T18:02:26;95881.59;;;11.40;51.64
70072;BME280;57434;42.794;23.302;2022-09-24T18:04:53;95992.34;;;12.15;51.70
70072;BME280;57434;42.794;23.302;2022-09-24T18:07:20;95947.44;;;11.54;52.40
70072;BME280;57434;42.794;23.302;2022-09-24T18:09:47;95862.56;;;11.09;52.43
70072;BME280;57434;42.794;23.302;2022-09-24T18:12:14;95829.38;;;10.88;52.25
70072;BME280;57434;42.794;23.302;2022-09-24T18:14:42;95883.34;;;11.38;51.57
70072;BME280;57434;42.794;23.302;2022-09-24T18:17:09;95882.03;;;11.53;51.25
70072;BME280;57434;42.794;23.302;2022-09-24T18:19:36;95882.66;;;11.43;51.01
70072;BME280;57434;42.794;23.302;2022-09-24T18:22:03;95971.06;;;12.08;51.69
70072;BME280;57434;42.794;23.302;2022-09-24T18:24:31;95841.09;;;11.06;51.67
70072;BME280;57434;42.794;23.302;2022-09-24T18:26:58;95972.81;;;12.06;51.85
70072;BME280;57434;42.794;23.302;2022-09-24T18:29:25;95852.38;;;11.32;52.11
70072;BME280;57434;42.794;23.302;2022-09-24T18:31:51;95832.03;;;11.37;51.79
70072;BME280;57434;42.794;23.302;2022-09-24T18:34:19;95891.44;;;11.50;51.87
70072;BME280;57434;42.794;23.302;2022-09-24T18:36:46;95770.72;;;10.90;51.14
70072;BME280;57434;42.794;23.302;2022-09-24T18:39:13;95984.75;;;12.21;50.78
70072;BME280;57434;42.794;23.302;2022-09-24T18:41:49;95845.66;;;11.04;51.79
70072;BME280;57434;42.794;23.302;2022-09-24T18:44:16;95870.19;;;10.53;52.88
70072;BME280;57434;42.794;23.302;2022-09-24T18:46:43;96011.97;;;11.13;54.23